createdAt,value
2019-04-14T00:01:10.838Z,35.00
2019-04-14T00:03:43.288Z,32.60
2019-04-14T00:06:11.179Z,33.70
2019-04-14T00:08:39.358Z,33.10
2019-04-14T00:11:06.440Z,34.10
2019-04-14T00:13:33.233Z,33.73
2019-04-14T00:16:00.911Z,34.43
2019-04-14T00:18:27.701Z,39.48
2019-04-14T00:20:55.533Z,40.75
2019-04-14T00:23:22.202Z,34.75
2019-04-14T00:25:50.122Z,34.83
2019-04-14T00:28:17.009Z,34.78
2019-04-14T00:30:44.694Z,35.28
2019-04-14T00:33:17.008Z,35.83
2019-04-14T00:35:49.454Z,37.83
2019-04-14T00:38:18.138Z,38.38
2019-04-14T00:40:56.120Z,35.83
2019-04-14T00:43:24.775Z,37.00
2019-04-14T00:45:56.485Z,35.85
2019-04-14T00:48:24.289Z,31.30
2019-04-14T00:50:51.811Z,32.78
2019-04-14T00:53:18.582Z,32.35
2019-04-14T00:55:45.143Z,30.62
2019-04-14T00:58:12.769Z,27.85
2019-04-14T01:00:40.756Z,25.17
2019-04-14T01:03:09.149Z,26.73
2019-04-14T01:05:37.500Z,26.82
2019-04-14T01:08:05.154Z,27.25
2019-04-14T01:10:32.196Z,24.30
2019-04-14T01:12:58.576Z,25.85
2019-04-14T01:15:25.238Z,25.92
2019-04-14T01:17:52.894Z,28.07
2019-04-14T01:20:31.839Z,25.85
2019-04-14T01:22:59.779Z,26.97
2019-04-14T01:25:26.685Z,25.10
2019-04-14T01:27:53.788Z,23.87
2019-04-14T01:30:21.902Z,27.00
2019-04-14T01:32:49.990Z,29.02
2019-04-14T01:35:17.995Z,26.75
2019-04-14T01:37:44.927Z,24.32
2019-04-14T01:40:12.087Z,22.82
2019-04-14T01:42:39.851Z,26.23
2019-04-14T01:45:07.949Z,26.25
2019-04-14T01:47:35.635Z,27.30
2019-04-14T01:50:03.718Z,28.75
2019-04-14T01:52:38.504Z,25.92
2019-04-14T01:55:22.368Z,25.15
2019-04-14T01:57:50.963Z,25.25
2019-04-14T02:00:22.826Z,26.20
2019-04-14T02:02:50.936Z,24.52
2019-04-14T02:05:19.120Z,25.60
2019-04-14T02:07:47.007Z,24.32
2019-04-14T02:10:15.085Z,22.48
2019-04-14T02:12:43.110Z,25.25
2019-04-14T02:15:11.204Z,22.77
2019-04-14T02:17:39.149Z,25.48
2019-04-14T02:20:07.697Z,22.82
2019-04-14T02:22:35.519Z,24.95
2019-04-14T02:25:03.600Z,22.80
2019-04-14T02:27:30.162Z,24.82
2019-04-14T02:29:58.103Z,24.30
2019-04-14T02:32:49.399Z,24.23
2019-04-14T02:35:21.167Z,24.18
2019-04-14T02:40:21.542Z,24.10
2019-04-14T02:42:54.479Z,23.98
2019-04-14T02:45:19.866Z,26.37
2019-04-14T02:47:58.634Z,27.00
2019-04-14T02:50:10.917Z,24.55
2019-04-14T02:52:47.297Z,23.47
2019-04-14T02:55:04.804Z,29.32
2019-04-14T02:57:37.587Z,25.95
2019-04-14T03:07:45.781Z,26.27
2019-04-14T03:10:06.849Z,25.00
2019-04-14T03:15:03.467Z,28.07
2019-04-14T03:17:30.109Z,25.57
2019-04-14T03:22:45.954Z,27.50
2019-04-14T03:25:17.176Z,28.23
2019-04-14T03:27:58.626Z,25.32
2019-04-14T03:33:32.864Z,29.98
2019-04-14T03:38:11.377Z,29.87
2019-04-14T03:40:37.634Z,28.23
2019-04-14T03:43:03.160Z,28.90
2019-04-14T03:45:37.816Z,29.48
2019-04-14T03:48:31.580Z,28.70
2019-04-14T03:50:21.155Z,27.85
2019-04-14T03:55:08.067Z,27.10
2019-04-14T03:57:23.635Z,25.85
2019-04-14T03:59:50.094Z,29.20
2019-04-14T04:02:18.240Z,29.07
2019-04-14T04:04:44.991Z,27.80
2019-04-14T04:07:12.465Z,26.27
2019-04-14T04:09:41.263Z,28.50
2019-04-14T04:12:07.643Z,27.62
2019-04-14T04:14:35.585Z,25.08
2019-04-14T04:17:21.114Z,27.00
2019-04-14T04:19:53.454Z,28.90
2019-04-14T04:22:39.138Z,28.67
2019-04-14T04:25:20.404Z,30.40
2019-04-14T04:27:48.819Z,23.52
2019-04-14T04:30:29.746Z,27.77
2019-04-14T04:33:07.060Z,28.02
2019-04-14T04:35:39.296Z,27.25
2019-04-14T04:38:11.755Z,27.32
2019-04-14T04:40:39.627Z,28.47
2019-04-14T04:43:06.494Z,26.50
2019-04-14T04:45:34.109Z,29.23
2019-04-14T04:48:00.776Z,29.92
2019-04-14T04:50:28.203Z,30.57
2019-04-14T04:52:56.187Z,30.48
2019-04-14T04:55:22.773Z,32.48
2019-04-14T04:57:50.645Z,30.57
2019-04-14T05:00:17.850Z,30.92
2019-04-14T05:02:44.696Z,28.95
2019-04-14T05:05:49.243Z,32.38
2019-04-14T05:08:17.313Z,27.90
2019-04-14T05:10:50.090Z,31.50
2019-04-14T05:13:18.418Z,29.07
2019-04-14T05:15:47.423Z,29.55
2019-04-14T05:18:15.519Z,28.98
2019-04-14T05:20:46.320Z,31.05
2019-04-14T05:23:13.073Z,28.32
2019-04-14T05:25:40.790Z,30.50
2019-04-14T05:28:07.363Z,28.60
2019-04-14T05:30:34.924Z,30.40
2019-04-14T05:33:01.603Z,27.20
2019-04-14T05:35:29.039Z,27.80
2019-04-14T05:37:55.879Z,25.90
2019-04-14T05:40:23.388Z,27.37
2019-04-14T05:42:49.977Z,26.95
2019-04-14T05:45:17.561Z,26.45
2019-04-14T05:47:44.276Z,26.00
2019-04-14T05:50:11.688Z,25.90
2019-04-14T05:52:38.277Z,27.58
2019-04-14T05:55:06.772Z,27.58
2019-04-14T05:57:33.313Z,27.82
2019-04-14T05:59:59.707Z,31.57
2019-04-14T06:02:28.877Z,29.25
2019-04-14T06:04:55.034Z,25.23
2019-04-14T06:07:21.943Z,26.73
2019-04-14T06:09:48.502Z,24.95
2019-04-14T06:12:14.943Z,28.45
2019-04-14T06:14:41.505Z,26.77
2019-04-14T06:17:07.930Z,28.70
2019-04-14T06:19:37.939Z,30.52
2019-04-14T06:22:02.783Z,26.00
2019-04-14T06:24:29.415Z,25.20
2019-04-14T06:26:55.966Z,26.40
2019-04-14T06:29:22.500Z,26.15
2019-04-14T06:31:53.436Z,28.07
2019-04-14T06:34:23.102Z,27.90
2019-04-14T06:36:54.660Z,29.98
2019-04-14T06:39:32.182Z,28.02
2019-04-14T06:41:58.901Z,28.23
2019-04-14T06:44:25.524Z,30.52
2019-04-14T06:46:52.285Z,27.13
2019-04-14T06:49:18.931Z,34.40
2019-04-14T06:51:45.467Z,33.30
2019-04-14T06:54:11.939Z,30.70
2019-04-14T06:56:38.682Z,29.50
2019-04-14T06:59:05.310Z,31.25
2019-04-14T07:01:31.988Z,27.32
2019-04-14T07:03:58.599Z,28.75
2019-04-14T07:06:25.157Z,33.80
2019-04-14T07:08:51.867Z,26.97
2019-04-14T07:11:18.377Z,30.15
2019-04-14T07:13:47.824Z,26.90
2019-04-14T07:16:13.468Z,30.40
2019-04-14T07:18:40.065Z,29.50
2019-04-14T07:21:06.841Z,26.17
2019-04-14T07:23:33.431Z,26.95
2019-04-14T07:26:00.128Z,26.37
2019-04-14T07:28:26.686Z,24.18
2019-04-14T07:30:55.165Z,25.80
2019-04-14T07:33:38.744Z,28.05
2019-04-14T07:36:23.619Z,29.00
2019-04-14T07:39:08.675Z,24.82
2019-04-14T07:41:43.220Z,27.20
2019-04-14T07:44:17.546Z,26.12
2019-04-14T07:46:48.894Z,25.55
2019-04-14T07:49:17.304Z,23.47
2019-04-14T07:51:45.727Z,23.65
2019-04-14T07:54:14.207Z,23.45
2019-04-14T07:56:57.849Z,22.05
2019-04-14T07:59:41.177Z,24.90
2019-04-14T08:02:09.772Z,23.05
2019-04-14T08:04:41.017Z,22.98
2019-04-14T08:07:07.449Z,22.58
2019-04-14T08:09:33.992Z,23.15
2019-04-14T08:12:00.645Z,21.75
2019-04-14T08:14:27.439Z,21.87
2019-04-14T08:16:54.209Z,24.35
2019-04-14T08:19:20.644Z,22.98
2019-04-14T08:21:47.355Z,21.90
2019-04-14T08:24:13.984Z,21.55
2019-04-14T08:26:41.838Z,23.22
2019-04-14T08:29:08.658Z,21.12
2019-04-14T08:31:35.249Z,22.45
2019-04-14T08:34:01.890Z,21.33
2019-04-14T08:36:28.380Z,20.82
2019-04-14T08:38:55.089Z,21.85
2019-04-14T08:41:21.480Z,18.60
2019-04-14T08:44:02.050Z,21.70
2019-04-14T08:46:30.449Z,21.48
2019-04-14T08:49:01.773Z,22.17
2019-04-14T08:51:30.330Z,26.57
2019-04-14T08:54:15.565Z,20.60
2019-04-14T08:57:00.665Z,20.02
2019-04-14T08:59:38.332Z,21.10
2019-04-14T09:02:07.153Z,17.55
2019-04-14T09:04:52.282Z,20.80
2019-04-14T09:07:20.773Z,17.82
2019-04-14T09:09:49.289Z,21.12
2019-04-14T09:12:17.570Z,20.57
2019-04-14T09:14:57.146Z,19.00
2019-04-14T09:17:25.661Z,19.23
2019-04-14T09:19:52.229Z,18.80
2019-04-14T09:22:18.776Z,18.50
2019-04-14T09:24:46.130Z,19.60
2019-04-14T09:27:13.729Z,20.48
2019-04-14T09:29:40.516Z,19.55
2019-04-14T09:32:09.080Z,18.87
2019-04-14T09:34:37.814Z,20.60
2019-04-14T09:37:04.647Z,20.17
2019-04-14T09:39:31.404Z,17.27
2019-04-14T09:41:58.656Z,18.67
2019-04-14T09:44:25.572Z,19.27
2019-04-14T09:46:52.248Z,19.40
2019-04-14T09:49:18.827Z,20.15
2019-04-14T09:51:45.471Z,18.37
2019-04-14T09:54:31.883Z,17.98
2019-04-14T09:56:58.590Z,20.85
2019-04-14T09:59:25.242Z,20.25
2019-04-14T10:01:52.450Z,18.57
2019-04-14T10:04:19.148Z,19.45
2019-04-14T10:06:45.930Z,17.27
2019-04-14T10:09:12.812Z,22.37
2019-04-14T10:11:48.450Z,19.87
2019-04-14T10:14:09.004Z,16.52
2019-04-14T10:16:37.308Z,17.40
2019-04-14T10:19:03.879Z,16.95
2019-04-14T10:21:30.915Z,19.15
2019-04-14T10:23:57.680Z,15.20
2019-04-14T10:26:24.316Z,15.20
2019-04-14T10:28:51.023Z,14.28
2019-04-14T10:31:17.871Z,14.63
2019-04-14T10:33:44.727Z,20.37
2019-04-14T10:36:11.614Z,17.35
2019-04-14T10:38:38.180Z,14.15
2019-04-14T10:41:04.856Z,15.58
2019-04-14T10:43:31.809Z,14.63
2019-04-14T10:45:58.452Z,14.50
2019-04-14T10:48:24.874Z,15.20
2019-04-14T10:50:51.379Z,13.45
2019-04-14T10:53:17.953Z,13.53
2019-04-14T10:55:44.568Z,14.07
2019-04-14T10:58:11.196Z,13.32
2019-04-14T11:00:37.948Z,13.93
2019-04-14T11:03:04.767Z,13.40
2019-04-14T11:05:33.268Z,15.70
2019-04-14T11:08:00.032Z,12.53
2019-04-14T11:10:26.744Z,16.62
2019-04-14T11:12:53.901Z,42.00
2019-04-14T11:15:20.394Z,13.23
2019-04-14T11:17:47.134Z,12.70
2019-04-14T11:20:14.199Z,12.78
2019-04-14T11:22:40.852Z,13.78
2019-04-14T11:25:07.476Z,12.20
2019-04-14T11:27:33.912Z,10.65
2019-04-14T11:30:00.578Z,11.12
2019-04-14T11:32:29.148Z,10.38
2019-04-14T11:35:16.679Z,10.20
2019-04-14T11:38:04.238Z,9.55
2019-04-14T11:40:38.629Z,9.58
2019-04-14T11:43:05.093Z,8.45
2019-04-14T11:45:31.864Z,9.63
2019-04-14T11:47:58.476Z,8.83
2019-04-14T11:50:25.048Z,8.58
2019-04-14T11:52:51.499Z,8.53
2019-04-14T11:55:18.128Z,9.88
2019-04-14T11:57:44.921Z,9.25
2019-04-14T12:00:13.572Z,8.95
2019-04-14T12:02:54.048Z,9.13
2019-04-14T12:05:22.534Z,8.93
2019-04-14T12:07:56.830Z,9.20
2019-04-14T12:10:24.116Z,9.93
2019-04-14T12:12:50.629Z,7.80
2019-04-14T12:15:17.415Z,7.97
2019-04-14T12:17:43.881Z,11.15
2019-04-14T12:20:10.714Z,8.38
2019-04-14T12:22:37.421Z,9.65
2019-04-14T12:25:04.966Z,8.65
2019-04-14T12:27:31.742Z,8.10
2019-04-14T12:29:58.912Z,8.58
2019-04-14T12:32:28.105Z,8.23
2019-04-14T12:34:54.764Z,7.72
2019-04-14T12:37:23.100Z,8.80
2019-04-14T12:39:49.535Z,8.20
2019-04-14T12:42:26.711Z,8.10
2019-04-14T12:44:55.182Z,8.48
2019-04-14T12:47:40.071Z,10.75
2019-04-14T12:50:09.478Z,10.45
2019-04-14T12:52:37.542Z,9.78
2019-04-14T12:55:04.592Z,9.38
2019-04-14T12:57:39.191Z,8.85
2019-04-14T13:00:08.185Z,9.83
2019-04-14T13:02:37.140Z,8.63
2019-04-14T13:05:04.482Z,10.08
2019-04-14T13:07:32.238Z,10.58
2019-04-14T13:09:59.079Z,9.40
2019-04-14T13:12:25.778Z,9.60
2019-04-14T13:14:52.333Z,9.23
2019-04-14T13:17:18.786Z,9.40
2019-04-14T13:19:45.405Z,8.45
2019-04-14T13:22:12.164Z,8.43
2019-04-14T13:24:38.987Z,8.75
2019-04-14T13:27:05.879Z,7.70
2019-04-14T13:29:32.573Z,7.17
2019-04-14T13:31:59.344Z,7.70
2019-04-14T13:34:26.225Z,7.20
2019-04-14T13:36:52.839Z,9.40
2019-04-14T13:39:19.473Z,8.15
2019-04-14T13:41:45.985Z,11.10
2019-04-14T13:44:12.590Z,10.28
2019-04-14T13:46:39.407Z,10.25
2019-04-14T13:49:06.045Z,9.55
2019-04-14T13:51:32.752Z,13.62
2019-04-14T13:53:59.517Z,8.70
2019-04-14T19:09:54.071Z,7.05
2019-04-14T19:12:25.152Z,5.45
2019-04-14T19:14:53.526Z,4.47
2019-04-14T19:17:38.491Z,4.50
2019-04-14T19:20:05.545Z,5.67
2019-04-14T19:22:32.414Z,9.05
2019-04-14T19:25:07.835Z,7.58
2019-04-14T19:27:27.465Z,5.65
2019-04-14T19:29:54.169Z,4.75
2019-04-14T19:32:20.744Z,6.08
2019-04-14T19:34:47.428Z,5.40
2019-04-14T19:37:14.134Z,6.75
2019-04-14T19:39:40.840Z,7.30
2019-04-14T19:42:07.505Z,16.32
2019-04-14T19:44:34.216Z,7.22
2019-04-14T19:47:01.008Z,8.78
2019-04-14T19:49:27.645Z,7.20
2019-04-14T19:51:54.448Z,6.42
2019-04-14T19:54:21.205Z,10.55
2019-04-14T19:56:47.770Z,10.23
2019-04-14T19:59:16.118Z,8.23
2019-04-14T20:01:42.679Z,6.47
2019-04-14T20:04:09.319Z,7.00
2019-04-14T20:06:37.892Z,6.12
2019-04-14T20:09:05.974Z,6.62
2019-04-14T20:11:32.883Z,5.62
2019-04-14T20:13:59.453Z,5.08
2019-04-14T20:16:44.242Z,5.60
2019-04-14T20:19:32.041Z,5.10
2019-04-14T20:22:09.492Z,9.35
2019-04-14T20:24:38.157Z,7.20
2019-04-14T20:27:06.689Z,9.35
2019-04-14T20:29:35.204Z,6.35
2019-04-14T20:32:04.106Z,8.53
2019-04-14T20:34:31.887Z,7.85
2019-04-14T20:36:58.705Z,7.22
2019-04-14T20:39:26.271Z,8.23
2019-04-14T20:41:53.061Z,7.22
2019-04-14T20:44:19.938Z,6.22
2019-04-14T20:46:46.589Z,6.20
2019-04-14T20:49:13.368Z,6.03
2019-04-14T20:51:39.972Z,6.62
2019-04-14T20:54:06.802Z,10.03
2019-04-14T20:56:34.093Z,7.58
2019-04-14T20:59:00.758Z,13.83
2019-04-14T21:01:29.345Z,6.45
2019-04-14T21:03:57.878Z,7.45
2019-04-14T21:06:43.151Z,8.80
2019-04-14T21:09:20.618Z,8.58
2019-04-14T21:11:54.802Z,5.85
2019-04-14T21:14:40.009Z,6.75
2019-04-14T21:17:08.608Z,9.38
2019-04-14T21:19:53.682Z,6.83
2019-04-14T21:22:22.229Z,9.30
2019-04-14T21:25:02.552Z,9.75
2019-04-14T21:27:33.838Z,10.23
2019-04-14T21:30:14.114Z,8.98
2019-04-14T21:32:54.472Z,10.48
2019-04-14T21:35:22.905Z,10.58
2019-04-14T21:38:00.240Z,9.78
2019-04-14T21:40:45.411Z,11.22
2019-04-14T21:43:11.944Z,15.40
2019-04-14T21:45:38.822Z,12.33
2019-04-14T21:48:05.415Z,9.90
2019-04-14T21:50:32.082Z,12.35
2019-04-14T21:52:58.774Z,12.28
2019-04-14T21:55:27.491Z,12.45
2019-04-14T21:57:57.923Z,12.28
2019-04-14T22:00:51.535Z,13.38
2019-04-14T22:03:30.797Z,8.08
2019-04-14T22:06:04.884Z,13.28
2019-04-14T22:08:33.486Z,10.08
2019-04-14T22:11:07.870Z,8.73
2019-04-14T22:13:34.510Z,8.73
2019-04-14T22:16:01.610Z,10.20
2019-04-14T22:18:28.163Z,7.97
2019-04-14T22:20:54.941Z,7.92
2019-04-14T22:23:21.614Z,7.33
2019-04-14T22:25:48.176Z,8.30
2019-04-14T22:28:14.831Z,7.12
2019-04-14T22:30:41.428Z,8.53
2019-04-14T22:33:09.370Z,8.60
2019-04-14T22:35:35.994Z,7.20
2019-04-14T22:38:02.559Z,8.65
2019-04-14T22:40:29.282Z,8.63
2019-04-14T22:42:55.968Z,9.35
2019-04-14T22:45:22.962Z,8.68
2019-04-14T22:47:49.547Z,7.83
2019-04-14T22:50:16.303Z,6.25
2019-04-14T22:52:42.952Z,8.70
2019-04-14T22:55:09.581Z,7.95
2019-04-14T22:57:36.099Z,9.40
2019-04-14T23:00:06.665Z,7.67
2019-04-14T23:02:54.890Z,9.73
2019-04-14T23:05:32.239Z,7.47
2019-04-14T23:08:00.695Z,9.25
2019-04-14T23:10:29.233Z,8.80
2019-04-14T23:12:57.757Z,14.00
2019-04-14T23:15:42.694Z,8.78
2019-04-14T23:18:11.250Z,8.35
2019-04-14T23:20:42.860Z,8.75
2019-04-14T23:23:20.482Z,13.60
2019-04-14T23:25:48.939Z,9.73
2019-04-14T23:28:16.116Z,10.80
2019-04-14T23:30:42.620Z,9.38
2019-04-14T23:33:09.273Z,10.00
2019-04-14T23:35:35.863Z,8.70
2019-04-14T23:38:02.664Z,8.95
2019-04-14T23:40:32.622Z,8.28
2019-04-14T23:42:59.278Z,8.63
2019-04-14T23:45:26.440Z,8.60
2019-04-14T23:47:53.651Z,9.55
2019-04-14T23:50:20.554Z,8.68
2019-04-14T23:52:47.254Z,8.83
2019-04-14T23:55:14.171Z,9.03
2019-04-14T23:57:40.784Z,8.60
